createdAt,value
2024-02-19T00:03:53.288Z,13.40
2024-02-19T00:08:56.284Z,14.30
2024-02-19T00:13:59.698Z,11.50
2024-02-19T00:19:02.720Z,10.90
2024-02-19T00:24:06.516Z,12.90
2024-02-19T00:29:09.560Z,13.60
2024-02-19T00:34:12.561Z,12.80
2024-02-19T00:39:15.561Z,12.90
2024-02-19T00:44:18.470Z,11.50
2024-02-19T00:49:21.528Z,13.00
2024-02-19T00:54:24.525Z,13.70
2024-02-19T00:59:27.594Z,11.20
2024-02-19T01:04:30.600Z,12.70
2024-02-19T01:09:33.775Z,15.30
2024-02-19T01:14:37.723Z,15.10
2024-02-19T01:19:41.130Z,10.90
2024-02-19T01:24:44.170Z,11.40
2024-02-19T01:29:47.797Z,13.80
2024-02-19T01:34:50.823Z,12.50
2024-02-19T01:39:54.340Z,14.40
2024-02-19T01:44:57.275Z,10.90
2024-02-19T01:50:00.788Z,13.80
2024-02-19T01:55:05.228Z,16.80
2024-02-19T02:00:11.721Z,14.20
2024-02-19T02:05:14.756Z,14.80
2024-02-19T02:10:19.570Z,14.80
2024-02-19T02:15:22.548Z,14.50
2024-02-19T02:20:25.474Z,13.50
2024-02-19T02:25:28.424Z,16.40
2024-02-19T02:30:31.409Z,12.70
2024-02-19T02:35:35.184Z,13.90
2024-02-19T02:40:38.090Z,12.80
2024-02-19T02:45:41.065Z,14.60
2024-02-19T02:50:43.987Z,12.80
2024-02-19T02:55:46.953Z,15.00
2024-02-19T03:00:50.161Z,12.60
2024-02-19T03:05:53.368Z,12.10
2024-02-19T03:10:56.261Z,12.90
2024-02-19T03:15:59.354Z,12.70
2024-02-19T03:21:04.841Z,12.40
2024-02-19T03:26:08.122Z,13.60
2024-02-19T03:31:11.086Z,12.00
2024-02-19T03:36:14.046Z,16.30
2024-02-19T03:41:16.950Z,15.60
2024-02-19T03:46:19.881Z,14.30
2024-02-19T03:51:22.962Z,10.80
2024-02-19T03:56:25.917Z,13.80
2024-02-19T04:01:28.983Z,13.50
2024-02-19T04:06:31.941Z,12.10
2024-02-19T04:11:34.921Z,14.30
2024-02-19T04:16:37.960Z,20.50
2024-02-19T04:21:46.113Z,16.60
2024-02-19T04:26:49.397Z,16.50
2024-02-19T04:31:52.420Z,15.30
2024-02-19T04:36:55.478Z,15.50
2024-02-19T04:41:58.848Z,15.80
2024-02-19T04:47:01.849Z,14.20
2024-02-19T04:52:06.040Z,14.40
2024-02-19T04:57:09.692Z,13.40
2024-02-19T05:02:13.272Z,16.30
2024-02-19T05:07:17.353Z,17.30
2024-02-19T05:12:20.624Z,13.40
2024-02-19T05:17:23.628Z,14.00
2024-02-19T05:22:26.591Z,17.50
2024-02-19T05:27:29.762Z,16.50
2024-02-19T05:32:33.207Z,15.80
2024-02-19T05:37:36.122Z,15.50
2024-02-19T05:42:39.166Z,13.30
2024-02-19T05:47:42.076Z,16.90
2024-02-19T05:52:44.999Z,13.90
2024-02-19T05:57:48.394Z,14.20
2024-02-19T06:02:51.343Z,14.80
2024-02-19T06:07:54.349Z,15.60
2024-02-19T06:12:57.299Z,14.00
2024-02-19T06:18:00.294Z,11.90
2024-02-19T06:23:03.437Z,11.50
2024-02-19T06:28:08.238Z,10.10
2024-02-19T06:33:11.268Z,13.10
2024-02-19T06:38:14.255Z,14.10
2024-02-19T06:43:17.466Z,16.20
2024-02-19T06:48:20.675Z,18.60
2024-02-19T06:53:23.826Z,15.70
2024-02-19T06:58:26.901Z,12.20
2024-02-19T07:03:30.119Z,15.60
2024-02-19T07:08:33.112Z,18.10
2024-02-19T07:13:36.118Z,15.90
2024-02-19T07:18:39.330Z,12.30
2024-02-19T07:23:42.379Z,13.90
2024-02-19T07:28:45.347Z,16.30
2024-02-19T07:33:48.494Z,13.50
2024-02-19T07:38:51.692Z,19.10
2024-02-19T07:43:54.719Z,25.20
2024-02-19T07:48:57.812Z,21.90
2024-02-19T07:54:00.940Z,26.00
2024-02-19T07:59:03.961Z,20.90
2024-02-19T08:04:07.376Z,22.80
2024-02-19T08:09:10.888Z,18.30
2024-02-19T08:14:13.916Z,20.20
2024-02-19T08:19:17.790Z,15.40
2024-02-19T08:24:21.081Z,29.50
2024-02-19T08:29:24.116Z,37.40
2024-02-19T08:34:27.205Z,26.10
2024-02-19T08:39:30.292Z,17.90
2024-02-19T08:44:33.453Z,18.50
2024-02-19T08:49:37.650Z,17.80
2024-02-19T08:54:41.895Z,26.70
2024-02-19T08:59:47.274Z,25.10
2024-02-19T09:04:51.169Z,17.20
2024-02-19T09:09:54.469Z,29.40
2024-02-19T09:14:59.601Z,29.30
2024-02-19T09:20:04.194Z,33.10
2024-02-19T09:25:08.005Z,15.00
2024-02-19T09:30:11.637Z,14.60
2024-02-19T09:35:15.052Z,26.20
2024-02-19T09:40:22.953Z,23.00
2024-02-19T09:45:27.372Z,14.00
2024-02-19T09:50:33.109Z,14.90
2024-02-19T09:55:41.703Z,14.80
2024-02-19T10:00:56.618Z,23.20
2024-02-19T10:05:59.948Z,20.70
2024-02-19T10:11:10.372Z,19.30
2024-02-19T10:16:15.704Z,23.50
2024-02-19T10:21:19.111Z,22.90
2024-02-19T10:26:26.474Z,21.80
2024-02-19T10:31:30.972Z,27.10
2024-02-19T10:36:37.000Z,28.10
2024-02-19T10:41:44.661Z,25.50
2024-02-19T10:46:48.292Z,30.70
2024-02-19T10:51:57.616Z,29.50
2024-02-19T10:57:10.819Z,23.70
2024-02-19T11:02:21.539Z,30.20
2024-02-19T11:07:24.880Z,28.80
2024-02-19T11:12:30.793Z,30.70
2024-02-19T11:17:34.054Z,22.00
2024-02-19T11:22:39.081Z,28.60
2024-02-19T11:27:45.422Z,36.90
2024-02-19T11:32:48.679Z,41.00
2024-02-19T11:37:51.724Z,31.90
2024-02-19T11:42:55.442Z,39.00
2024-02-19T11:48:00.462Z,27.30
2024-02-19T11:53:08.220Z,39.30
2024-02-19T11:58:13.594Z,39.30
2024-02-19T12:03:19.353Z,35.60
2024-02-19T12:08:24.018Z,32.90
2024-02-19T12:13:27.638Z,24.90
2024-02-19T12:18:30.875Z,26.70
2024-02-19T12:23:37.035Z,33.20
2024-02-19T12:28:40.126Z,30.20
2024-02-19T12:33:45.517Z,33.70
2024-02-19T12:38:51.861Z,49.40
2024-02-19T12:43:57.331Z,34.20
2024-02-19T12:49:02.518Z,37.50
2024-02-19T12:54:10.666Z,70.90
2024-02-19T12:59:15.239Z,50.80
2024-02-19T13:04:19.355Z,42.00
2024-02-19T13:09:22.346Z,58.70
2024-02-19T13:14:26.173Z,46.30
2024-02-19T13:19:29.327Z,38.00
2024-02-19T13:24:32.893Z,47.60
2024-02-19T13:29:42.783Z,68.50
2024-02-19T13:34:48.444Z,41.60
2024-02-19T13:39:51.631Z,31.40
2024-02-19T13:44:57.188Z,48.30
2024-02-19T13:50:00.465Z,35.80
2024-02-19T13:55:04.069Z,34.90
2024-02-19T14:00:08.029Z,34.40
2024-02-19T14:05:11.532Z,34.10
2024-02-19T14:10:17.251Z,52.10
2024-02-19T14:15:21.835Z,57.30
2024-02-19T14:20:28.105Z,58.10
2024-02-19T14:25:34.165Z,56.30
2024-02-19T14:30:37.703Z,54.10
2024-02-19T14:35:42.081Z,56.20
2024-02-19T14:40:45.389Z,52.80
2024-02-19T14:45:49.212Z,51.10
2024-02-19T14:50:53.658Z,45.60
2024-02-19T14:55:57.595Z,46.60
2024-02-19T15:01:00.938Z,50.10
2024-02-19T15:06:07.171Z,55.50
2024-02-19T15:11:10.389Z,46.80
2024-02-19T15:16:13.481Z,46.80
2024-02-19T15:21:16.563Z,44.90
2024-02-19T15:26:22.157Z,65.00
2024-02-19T15:31:25.078Z,57.80
2024-02-19T15:36:28.190Z,51.10
2024-02-19T15:41:33.914Z,84.40
2024-02-19T15:46:37.308Z,86.50
2024-02-19T15:51:40.402Z,62.40
2024-02-19T15:56:43.679Z,52.00
2024-02-19T16:01:47.765Z,112.40
2024-02-19T16:06:53.835Z,48.60
2024-02-19T16:11:57.306Z,40.90
2024-02-19T16:17:00.711Z,48.80
2024-02-19T16:22:06.808Z,62.20
2024-02-19T16:27:10.265Z,71.30
2024-02-19T16:32:17.354Z,49.10
2024-02-19T16:37:26.814Z,44.50
2024-02-19T16:42:36.159Z,45.50
2024-02-19T16:47:39.282Z,43.10
2024-02-19T16:52:45.293Z,43.80
2024-02-19T16:57:48.977Z,42.50
2024-02-19T17:02:52.016Z,36.60
2024-02-19T17:07:55.651Z,40.20
2024-02-19T17:12:58.836Z,33.30
2024-02-19T17:18:02.017Z,28.50
2024-02-19T17:23:06.827Z,37.50
2024-02-19T17:28:09.940Z,41.00
2024-02-19T17:33:21.112Z,30.70
2024-02-19T17:38:26.871Z,28.40
2024-02-19T17:43:30.158Z,26.40
2024-02-19T17:48:33.806Z,34.20
2024-02-19T17:53:37.583Z,69.40
2024-02-19T17:58:43.575Z,210.20
2024-02-19T18:03:49.766Z,106.40
2024-02-19T18:08:53.155Z,180.20
2024-02-19T18:13:56.143Z,167.40
2024-02-19T18:19:01.557Z,132.20
2024-02-19T18:24:09.601Z,94.50
2024-02-19T18:29:16.758Z,84.70
2024-02-19T18:34:19.944Z,106.20
2024-02-19T18:39:22.949Z,80.50
2024-02-19T18:44:25.964Z,91.80
2024-02-19T18:49:33.223Z,150.50
2024-02-19T18:54:36.602Z,72.00
2024-02-19T18:59:40.959Z,43.30
2024-02-19T19:04:45.372Z,52.20
2024-02-19T19:09:48.738Z,38.70
2024-02-19T19:14:52.914Z,49.40
2024-02-19T19:19:55.985Z,40.00
2024-02-19T19:24:59.075Z,31.40
2024-02-19T19:30:02.076Z,25.60
2024-02-19T19:35:06.175Z,29.40
2024-02-19T19:40:10.554Z,38.00
2024-02-19T19:45:15.479Z,29.40
2024-02-19T19:50:20.449Z,25.30
2024-02-19T19:55:23.818Z,29.60
2024-02-19T20:00:28.717Z,22.30
2024-02-19T20:05:31.907Z,12.60
2024-02-19T20:10:35.754Z,21.10
2024-02-19T20:15:39.877Z,31.00
2024-02-19T20:20:43.783Z,24.70
2024-02-19T20:25:47.095Z,24.10
2024-02-19T20:30:50.119Z,20.20
2024-02-19T20:35:56.249Z,16.30
2024-02-19T20:40:59.301Z,16.50
2024-02-19T20:46:02.348Z,16.80
2024-02-19T20:51:06.237Z,15.10
2024-02-19T20:56:09.212Z,13.80
2024-02-19T21:01:12.700Z,14.10
2024-02-19T21:06:15.689Z,14.30
2024-02-19T21:11:18.695Z,11.00
2024-02-19T21:16:22.664Z,11.10
2024-02-19T21:21:30.556Z,15.20
2024-02-19T21:26:38.156Z,13.20
2024-02-19T21:31:41.401Z,9.00
2024-02-19T21:36:44.376Z,8.30
2024-02-19T21:41:47.463Z,8.10
2024-02-19T21:46:50.432Z,7.70
2024-02-19T21:51:53.398Z,7.30
2024-02-19T21:56:57.170Z,7.60
2024-02-19T22:02:05.257Z,9.80
2024-02-19T22:07:08.293Z,7.00
2024-02-19T22:12:11.269Z,7.30
2024-02-19T22:17:15.187Z,6.80
2024-02-19T22:22:18.143Z,8.80
2024-02-19T22:27:21.782Z,7.50
2024-02-19T22:32:24.620Z,7.00
2024-02-19T22:37:27.707Z,6.70
2024-02-19T22:42:31.684Z,5.20
2024-02-19T22:47:35.147Z,13.60
2024-02-19T22:52:41.316Z,7.80
2024-02-19T22:57:45.983Z,6.10
2024-02-19T23:02:49.580Z,7.70
2024-02-19T23:07:55.131Z,7.40
2024-02-19T23:12:58.336Z,10.00
2024-02-19T23:18:03.634Z,8.30
2024-02-19T23:23:07.365Z,8.20
2024-02-19T23:28:10.469Z,12.00
2024-02-19T23:33:13.960Z,9.20
2024-02-19T23:38:21.612Z,8.40
2024-02-19T23:43:24.632Z,12.70
2024-02-19T23:48:27.686Z,9.30
2024-02-19T23:53:30.819Z,7.80
2024-02-19T23:58:34.083Z,7.00
